PWSweather.com
Personal Weather Stations
Station Observations
BREAKEY01
Lévis, Breakeyville, QC G0S 1E1

LévisBreakeyville, QC G0S 1E1

Lat: 46.681, Lon: -71.224

Elevation: 328

Station Type: Davis Vantage Pro2

http://www.meteobreakey.webou.net/topic/index.php

Latest ConditionsUpdated 7:22:04 AM EST Friday, Jan 30, 2015
Currently Today's Max Today's Min Today's Average
Temperature 24.1°F-4.4°C 25.9°F-3.4°C 21.7°F-5.7°C 24.4°F-4.2°C
Dew Point 22.1°F-5.5°C 23.4°F-4.8°C 15.8°F-9.0°C 21.6°F-5.8°C
Winds 0.9 mph ESE1.4 kmh ESE 8.9 mph SE14.3 kmh SE - 4.0 mph 6.4 kmh
Wind Gusts 0.9 mph1.4 kmh 11.0 mph17.7 kmh - -
Humidity 92% 92% 77% 89%
Pressure 29.82 in1009.8 mb 29.93 in1013.5 mb 29.82 in1009.8 mb -
Precipitation - 0.07 in1.8 mm - -
Hour Temp Dew Point Humidity Winds Wind Gusts Pressure Precip Precip Rate Daily Precip Total
07:22 AM 24.1°F-4.4°C 22.1°F-5.5°C 92% 0.9 mph ESE1.4 kmh ESE 0.9 mph1.4 kmh 29.82 in1009.8 mb 0.00 in0.0 mm 0.00 in/hr0.0 mm/hr 0.07 in1.8 mm
07:17 AM 24.3°F-4.3°C 22.3°F-5.4°C 92% 2.0 mph ESE3.2 kmh ESE 0.9 mph1.4 kmh 29.82 in1009.8 mb 0.00 in0.0 mm 0.00 in/hr0.0 mm/hr 0.07 in1.8 mm
07:12 AM 24.3°F-4.3°C 22.3°F-5.4°C 92% 2.0 mph ESE3.2 kmh ESE 2.0 mph3.2 kmh 29.82 in1009.8 mb 0.00 in0.0 mm 0.00 in/hr0.0 mm/hr 0.07 in1.8 mm
07:07 AM 24.3°F-4.3°C 22.3°F-5.4°C 92% 2.0 mph SE3.2 kmh SE 2.0 mph3.2 kmh 29.82 in1009.8 mb 0.00 in0.0 mm 0.00 in/hr0.0 mm/hr 0.06 in1.5 mm
07:02 AM 24.4°F-4.2°C 22.5°F-5.3°C 92% 2.0 mph SE3.2 kmh SE 0.9 mph1.4 kmh 29.82 in1009.8 mb 0.00 in0.0 mm 0.00 in/hr0.0 mm/hr 0.06 in1.5 mm
06:57 AM 24.4°F-4.2°C 22.5°F-5.3°C 92% 2.0 mph SE3.2 kmh SE 2.0 mph3.2 kmh 29.83 in1010.2 mb 0.00 in0.0 mm 0.00 in/hr0.0 mm/hr 0.06 in1.5 mm
06:52 AM 24.4°F-4.2°C 22.5°F-5.3°C 92% 0.9 mph SE1.4 kmh SE 2.9 mph4.7 kmh 29.83 in1010.2 mb 0.00 in0.0 mm 0.00 in/hr0.0 mm/hr 0.06 in1.5 mm
06:42 AM 24.6°F-4.1°C 22.6°F-5.2°C 92% 0.9 mph SE1.4 kmh SE 0.9 mph1.4 kmh 29.83 in1010.2 mb 0.00 in0.0 mm 0.00 in/hr0.0 mm/hr 0.06 in1.5 mm
06:37 AM 24.6°F-4.1°C 22.6°F-5.2°C 92% 0.9 mph SE1.4 kmh SE -- 29.83 in1010.2 mb 0.00 in0.0 mm 0.00 in/hr0.0 mm/hr 0.06 in1.5 mm
06:32 AM 24.8°F-4.0°C 22.8°F-5.1°C 92% 2.0 mph SE3.2 kmh SE 0.9 mph1.4 kmh 29.83 in1010.2 mb 0.00 in0.0 mm 0.00 in/hr0.0 mm/hr 0.06 in1.5 mm
06:27 AM 25.0°F-3.9°C 23.0°F-5.0°C 92% 2.0 mph SE3.2 kmh SE 2.9 mph4.7 kmh 29.83 in1010.2 mb 0.00 in0.0 mm 0.00 in/hr0.0 mm/hr 0.06 in1.5 mm
06:22 AM 25.0°F-3.9°C 23.0°F-5.0°C 92% 2.9 mph SE4.7 kmh SE 2.9 mph4.7 kmh 29.83 in1010.2 mb 0.00 in0.0 mm 0.00 in/hr0.0 mm/hr 0.06 in1.5 mm
06:17 AM 25.0°F-3.9°C 23.0°F-5.0°C 92% 2.9 mph SE4.7 kmh SE 0.9 mph1.4 kmh 29.83 in1010.2 mb 0.00 in0.0 mm 0.00 in/hr0.0 mm/hr 0.06 in1.5 mm
06:12 AM 25.0°F-3.9°C 23.0°F-5.0°C 92% 4.9 mph SE7.9 kmh SE 2.9 mph4.7 kmh 29.83 in1010.2 mb 0.00 in0.0 mm 0.00 in/hr0.0 mm/hr 0.05 in1.3 mm
06:07 AM 25.0°F-3.9°C 23.0°F-5.0°C 92% 4.9 mph SE7.9 kmh SE 8.1 mph13.0 kmh 29.83 in1010.2 mb 0.00 in0.0 mm 0.00 in/hr0.0 mm/hr 0.05 in1.3 mm
06:02 AM 25.0°F-3.9°C 23.0°F-5.0°C 92% 4.9 mph SE7.9 kmh SE 6.9 mph11.1 kmh 29.83 in1010.2 mb 0.00 in0.0 mm 0.00 in/hr0.0 mm/hr 0.05 in1.3 mm
05:57 AM 25.0°F-3.9°C 23.0°F-5.0°C 92% 4.9 mph SE7.9 kmh SE 8.1 mph13.0 kmh 29.83 in1010.2 mb 0.00 in0.0 mm 0.00 in/hr0.0 mm/hr 0.05 in1.3 mm
05:52 AM 25.0°F-3.9°C 23.0°F-5.0°C 92% 6.0 mph S9.7 kmh S 6.0 mph9.7 kmh 29.84 in1010.5 mb 0.00 in0.0 mm 0.00 in/hr0.0 mm/hr 0.05 in1.3 mm
05:47 AM 25.0°F-3.9°C 23.0°F-5.0°C 92% 6.9 mph SSE11.1 kmh SSE 6.0 mph9.7 kmh 29.83 in1010.2 mb 0.00 in0.0 mm 0.00 in/hr0.0 mm/hr 0.04 in1.0 mm
05:42 AM 25.0°F-3.9°C 23.0°F-5.0°C 92% 6.9 mph SE11.1 kmh SE 4.9 mph7.9 kmh 29.83 in1010.2 mb 0.00 in0.0 mm 0.00 in/hr0.0 mm/hr 0.04 in1.0 mm
05:37 AM 25.0°F-3.9°C 22.6°F-5.2°C 91% 6.0 mph SSE9.7 kmh SSE 8.9 mph14.3 kmh 29.83 in1010.2 mb 0.00 in0.0 mm 0.00 in/hr0.0 mm/hr 0.04 in1.0 mm
05:32 AM 25.0°F-3.9°C 22.6°F-5.2°C 91% 6.0 mph SE9.7 kmh SE 2.9 mph4.7 kmh 29.83 in1010.2 mb 0.00 in0.0 mm 0.00 in/hr0.0 mm/hr 0.04 in1.0 mm
05:27 AM 25.0°F-3.9°C 22.6°F-5.2°C 91% 4.9 mph SE7.9 kmh SE 4.9 mph7.9 kmh 29.83 in1010.2 mb 0.00 in0.0 mm 0.00 in/hr0.0 mm/hr 0.04 in1.0 mm
05:22 AM 25.0°F-3.9°C 22.6°F-5.2°C 91% 4.9 mph SE7.9 kmh SE 2.0 mph3.2 kmh 29.83 in1010.2 mb 0.00 in0.0 mm 0.00 in/hr0.0 mm/hr 0.04 in1.0 mm
05:17 AM 25.0°F-3.9°C 22.6°F-5.2°C 91% 4.9 mph ESE7.9 kmh ESE 2.9 mph4.7 kmh 29.83 in1010.2 mb 0.00 in0.0 mm 0.00 in/hr0.0 mm/hr 0.04 in1.0 mm
05:12 AM 24.8°F-4.0°C 22.5°F-5.3°C 91% 4.9 mph SSE7.9 kmh SSE 8.9 mph14.3 kmh 29.83 in1010.2 mb 0.00 in0.0 mm 0.00 in/hr0.0 mm/hr 0.04 in1.0 mm
05:07 AM 24.8°F-4.0°C 22.5°F-5.3°C 91% 4.9 mph SE7.9 kmh SE 2.0 mph3.2 kmh 29.83 in1010.2 mb 0.00 in0.0 mm 0.00 in/hr0.0 mm/hr 0.03 in0.8 mm
05:02 AM 24.8°F-4.0°C 22.5°F-5.3°C 91% 4.0 mph SE6.4 kmh SE 4.0 mph6.4 kmh 29.83 in1010.2 mb 0.00 in0.0 mm 0.00 in/hr0.0 mm/hr 0.03 in0.8 mm
04:57 AM 24.8°F-4.0°C 22.5°F-5.3°C 91% 4.0 mph SE6.4 kmh SE 0.9 mph1.4 kmh 29.83 in1010.2 mb 0.00 in0.0 mm 0.00 in/hr0.0 mm/hr 0.03 in0.8 mm
04:52 AM 24.8°F-4.0°C 22.3°F-5.4°C 90% 6.0 mph SE9.7 kmh SE 2.0 mph3.2 kmh 29.83 in1010.2 mb 0.00 in0.0 mm 0.00 in/hr0.0 mm/hr 0.03 in0.8 mm
04:47 AM 24.6°F-4.1°C 22.1°F-5.5°C 90% 6.0 mph SSE9.7 kmh SSE 4.9 mph7.9 kmh 29.83 in1010.2 mb 0.00 in0.0 mm 0.00 in/hr0.0 mm/hr 0.03 in0.8 mm
04:42 AM 24.6°F-4.1°C 22.1°F-5.5°C 90% 4.9 mph SSE7.9 kmh SSE 4.0 mph6.4 kmh 29.83 in1010.2 mb 0.00 in0.0 mm 0.00 in/hr0.0 mm/hr 0.03 in0.8 mm
04:37 AM 24.6°F-4.1°C 22.1°F-5.5°C 90% 4.9 mph ESE7.9 kmh ESE 4.0 mph6.4 kmh 29.83 in1010.2 mb 0.00 in0.0 mm 0.00 in/hr0.0 mm/hr 0.03 in0.8 mm
04:32 AM 24.6°F-4.1°C 22.1°F-5.5°C 90% 4.0 mph SE6.4 kmh SE 4.0 mph6.4 kmh 29.83 in1010.2 mb 0.00 in0.0 mm 0.00 in/hr0.0 mm/hr 0.03 in0.8 mm
04:27 AM 24.6°F-4.1°C 22.1°F-5.5°C 90% 2.9 mph SE4.7 kmh SE 4.9 mph7.9 kmh 29.83 in1010.2 mb 0.00 in0.0 mm 0.00 in/hr0.0 mm/hr 0.03 in0.8 mm
04:22 AM 24.6°F-4.1°C 21.9°F-5.6°C 89% 4.0 mph SE6.4 kmh SE 2.0 mph3.2 kmh 29.83 in1010.2 mb 0.00 in0.0 mm 0.00 in/hr0.0 mm/hr 0.03 in0.8 mm
04:17 AM 24.6°F-4.1°C 21.9°F-5.6°C 89% 4.0 mph SSE6.4 kmh SSE 2.0 mph3.2 kmh 29.83 in1010.2 mb 0.00 in0.0 mm 0.00 in/hr0.0 mm/hr 0.03 in0.8 mm
04:12 AM 24.6°F-4.1°C 21.9°F-5.6°C 89% 4.9 mph SE7.9 kmh SE 6.9 mph11.1 kmh 29.83 in1010.2 mb 0.00 in0.0 mm 0.00 in/hr0.0 mm/hr 0.03 in0.8 mm
04:07 AM 24.6°F-4.1°C 21.9°F-5.6°C 89% 4.9 mph ESE7.9 kmh ESE 4.0 mph6.4 kmh 29.84 in1010.5 mb 0.00 in0.0 mm 0.00 in/hr0.0 mm/hr 0.02 in0.5 mm
04:02 AM 24.8°F-4.0°C 22.1°F-5.5°C 89% 4.9 mph SSE7.9 kmh SSE 4.0 mph6.4 kmh 29.84 in1010.5 mb 0.00 in0.0 mm 0.00 in/hr0.0 mm/hr 0.02 in0.5 mm
03:57 AM 24.8°F-4.0°C 22.1°F-5.5°C 89% 6.9 mph SE11.1 kmh SE 6.9 mph11.1 kmh 29.84 in1010.5 mb 0.00 in0.0 mm 0.00 in/hr0.0 mm/hr 0.02 in0.5 mm
03:52 AM 25.0°F-3.9°C 22.3°F-5.4°C 89% 8.9 mph SE14.3 kmh SE 4.0 mph6.4 kmh 29.84 in1010.5 mb 0.00 in0.0 mm 0.00 in/hr0.0 mm/hr 0.02 in0.5 mm
03:47 AM 25.2°F-3.8°C 22.1°F-5.5°C 88% 8.1 mph SE13.0 kmh SE 11.0 mph17.7 kmh 29.84 in1010.5 mb 0.00 in0.0 mm 0.00 in/hr0.0 mm/hr 0.02 in0.5 mm
03:42 AM 25.2°F-3.8°C 22.1°F-5.5°C 88% 8.1 mph SE13.0 kmh SE 8.9 mph14.3 kmh 29.84 in1010.5 mb 0.00 in0.0 mm 0.00 in/hr0.0 mm/hr 0.02 in0.5 mm
03:37 AM 25.3°F-3.7°C 22.3°F-5.4°C 88% 8.9 mph S14.3 kmh S 10.1 mph16.3 kmh 29.84 in1010.5 mb 0.00 in0.0 mm 0.00 in/hr0.0 mm/hr 0.02 in0.5 mm
03:32 AM 25.3°F-3.7°C 22.3°F-5.4°C 88% 8.1 mph SE13.0 kmh SE 8.1 mph13.0 kmh 29.84 in1010.5 mb 0.00 in0.0 mm 0.00 in/hr0.0 mm/hr 0.02 in0.5 mm
03:27 AM 25.5°F-3.6°C 22.5°F-5.3°C 88% 6.9 mph SE11.1 kmh SE 4.9 mph7.9 kmh 29.84 in1010.5 mb 0.00 in0.0 mm 0.00 in/hr0.0 mm/hr 0.02 in0.5 mm
03:22 AM 25.5°F-3.6°C 22.5°F-5.3°C 88% 6.0 mph SE9.7 kmh SE 8.1 mph13.0 kmh 29.84 in1010.5 mb 0.00 in0.0 mm 0.00 in/hr0.0 mm/hr 0.02 in0.5 mm
03:17 AM 25.5°F-3.6°C 22.5°F-5.3°C 88% 6.9 mph SE11.1 kmh SE 4.0 mph6.4 kmh 29.84 in1010.5 mb 0.00 in0.0 mm 0.00 in/hr0.0 mm/hr 0.02 in0.5 mm
03:12 AM 25.7°F-3.5°C 22.6°F-5.2°C 88% 6.9 mph SE11.1 kmh SE 8.1 mph13.0 kmh 29.84 in1010.5 mb 0.00 in0.0 mm 0.00 in/hr0.0 mm/hr 0.02 in0.5 mm
03:07 AM 25.7°F-3.5°C 22.6°F-5.2°C 88% 6.9 mph SE11.1 kmh SE 8.1 mph13.0 kmh 29.84 in1010.5 mb 0.00 in0.0 mm 0.00 in/hr0.0 mm/hr 0.02 in0.5 mm
03:02 AM 25.7°F-3.5°C 23.0°F-5.0°C 89% 6.0 mph SE9.7 kmh SE 6.9 mph11.1 kmh 29.84 in1010.5 mb 0.00 in0.0 mm 0.00 in/hr0.0 mm/hr 0.01 in0.3 mm
02:57 AM 25.5°F-3.6°C 22.8°F-5.1°C 89% 4.0 mph SSE6.4 kmh SSE 6.9 mph11.1 kmh 29.84 in1010.5 mb 0.00 in0.0 mm 0.00 in/hr0.0 mm/hr 0.01 in0.3 mm
02:52 AM 25.5°F-3.6°C 23.0°F-5.0°C 90% 0.9 mph SE1.4 kmh SE 8.1 mph13.0 kmh 29.85 in1010.8 mb 0.00 in0.0 mm 0.00 in/hr0.0 mm/hr 0.01 in0.3 mm
02:47 AM 25.7°F-3.5°C 23.2°F-4.9°C 90% 0.9 mph SE1.4 kmh SE -- 29.85 in1010.8 mb 0.00 in0.0 mm 0.00 in/hr0.0 mm/hr 0.01 in0.3 mm
02:42 AM 25.9°F-3.4°C 23.4°F-4.8°C 90% 0.9 mph E1.4 kmh E 2.0 mph3.2 kmh 29.86 in1011.2 mb 0.00 in0.0 mm 0.00 in/hr0.0 mm/hr 0.01 in0.3 mm
02:37 AM 25.7°F-3.5°C 23.2°F-4.9°C 90% 2.0 mph ESE3.2 kmh ESE -- 29.86 in1011.2 mb 0.00 in0.0 mm 0.00 in/hr0.0 mm/hr 0.01 in0.3 mm
02:32 AM 25.5°F-3.6°C 23.0°F-5.0°C 90% 2.9 mph ESE4.7 kmh ESE 2.0 mph3.2 kmh 29.86 in1011.2 mb 0.00 in0.0 mm 0.00 in/hr0.0 mm/hr 0.01 in0.3 mm
02:27 AM 25.5°F-3.6°C 23.0°F-5.0°C 90% 2.9 mph SE4.7 kmh SE -- 29.86 in1011.2 mb 0.00 in0.0 mm 0.00 in/hr0.0 mm/hr 0.01 in0.3 mm
02:22 AM 25.3°F-3.7°C 22.8°F-5.1°C 90% 2.9 mph ESE4.7 kmh ESE 2.9 mph4.7 kmh 29.86 in1011.2 mb 0.00 in0.0 mm 0.00 in/hr0.0 mm/hr 0.01 in0.3 mm
02:17 AM 25.3°F-3.7°C 22.8°F-5.1°C 90% 2.9 mph SE4.7 kmh SE 4.0 mph6.4 kmh 29.86 in1011.2 mb 0.00 in0.0 mm 0.00 in/hr0.0 mm/hr 0.01 in0.3 mm
02:12 AM 25.2°F-3.8°C 22.6°F-5.2°C 90% 2.9 mph SE4.7 kmh SE 2.0 mph3.2 kmh 29.86 in1011.2 mb 0.00 in0.0 mm 0.00 in/hr0.0 mm/hr 0.01 in0.3 mm
02:07 AM 25.2°F-3.8°C 22.6°F-5.2°C 90% 2.9 mph SE4.7 kmh SE 4.0 mph6.4 kmh 29.86 in1011.2 mb 0.00 in0.0 mm 0.00 in/hr0.0 mm/hr 0.01 in0.3 mm
02:02 AM 25.0°F-3.9°C 22.5°F-5.3°C 90% 2.9 mph SE4.7 kmh SE 2.0 mph3.2 kmh 29.87 in1011.5 mb 0.00 in0.0 mm 0.00 in/hr0.0 mm/hr 0.01 in0.3 mm
01:57 AM 25.0°F-3.9°C 22.3°F-5.4°C 89% 4.0 mph SE6.4 kmh SE 0.9 mph1.4 kmh 29.87 in1011.5 mb 0.00 in0.0 mm 0.00 in/hr0.0 mm/hr 0.01 in0.3 mm
01:52 AM 24.6°F-4.1°C 21.9°F-5.6°C 89% 4.9 mph SE7.9 kmh SE 0.9 mph1.4 kmh 29.87 in1011.5 mb 0.00 in0.0 mm 0.00 in/hr0.0 mm/hr 0.01 in0.3 mm
01:47 AM 24.6°F-4.1°C 21.9°F-5.6°C 89% 4.9 mph SSE7.9 kmh SSE 2.0 mph3.2 kmh 29.87 in1011.5 mb 0.00 in0.0 mm 0.00 in/hr0.0 mm/hr 0.01 in0.3 mm
01:42 AM 24.3°F-4.3°C 21.2°F-6.0°C 88% 4.0 mph SE6.4 kmh SE 4.0 mph6.4 kmh 29.88 in1011.9 mb 0.00 in0.0 mm 0.00 in/hr0.0 mm/hr 0.01 in0.3 mm
01:37 AM 24.1°F-4.4°C 20.8°F-6.2°C 87% 2.9 mph SSE4.7 kmh SSE 4.0 mph6.4 kmh 29.88 in1011.9 mb 0.00 in0.0 mm 0.00 in/hr0.0 mm/hr 0.01 in0.3 mm
01:32 AM 23.9°F-4.5°C 20.3°F-6.5°C 86% 2.9 mph SE4.7 kmh SE 2.9 mph4.7 kmh 29.88 in1011.9 mb 0.00 in0.0 mm 0.00 in/hr0.0 mm/hr 0.01 in0.3 mm
01:27 AM 23.7°F-4.6°C 20.1°F-6.6°C 86% 2.9 mph SE4.7 kmh SE 2.9 mph4.7 kmh 29.88 in1011.9 mb 0.00 in0.0 mm 0.00 in/hr0.0 mm/hr 0.00 in0.0 mm
01:22 AM 23.5°F-4.7°C 19.9°F-6.7°C 86% 2.9 mph SE4.7 kmh SE 4.9 mph7.9 kmh 29.88 in1011.9 mb 0.00 in0.0 mm 0.00 in/hr0.0 mm/hr 0.00 in0.0 mm
01:17 AM 23.4°F-4.8°C 19.8°F-6.8°C 86% 2.9 mph SE4.7 kmh SE 2.0 mph3.2 kmh 29.88 in1011.9 mb 0.00 in0.0 mm 0.00 in/hr0.0 mm/hr 0.00 in0.0 mm
01:12 AM 23.2°F-4.9°C 19.6°F-6.9°C 86% 2.9 mph SE4.7 kmh SE 2.0 mph3.2 kmh 29.88 in1011.9 mb 0.00 in0.0 mm 0.00 in/hr0.0 mm/hr 0.00 in0.0 mm
01:07 AM 22.8°F-5.1°C 19.2°F-7.1°C 86% 2.9 mph ESE4.7 kmh ESE 6.9 mph11.1 kmh 29.88 in1011.9 mb 0.00 in0.0 mm 0.00 in/hr0.0 mm/hr 0.00 in0.0 mm
01:02 AM 22.6°F-5.2°C 19.4°F-7.0°C 87% 2.9 mph SE4.7 kmh SE 2.9 mph4.7 kmh 29.89 in1012.2 mb 0.00 in0.0 mm 0.00 in/hr0.0 mm/hr 0.00 in0.0 mm
12:57 AM 22.5°F-5.3°C 19.2°F-7.1°C 87% 2.9 mph ESE4.7 kmh ESE 2.0 mph3.2 kmh 29.89 in1012.2 mb 0.00 in0.0 mm 0.00 in/hr0.0 mm/hr 0.00 in0.0 mm
12:52 AM 22.3°F-5.4°C 19.0°F-7.2°C 87% 2.9 mph ESE4.7 kmh ESE 8.1 mph13.0 kmh 29.90 in1012.5 mb 0.00 in0.0 mm 0.00 in/hr0.0 mm/hr 0.00 in0.0 mm
12:47 AM 22.1°F-5.5°C 18.9°F-7.3°C 87% 2.0 mph E3.2 kmh E 4.0 mph6.4 kmh 29.90 in1012.5 mb 0.00 in0.0 mm 0.00 in/hr0.0 mm/hr 0.00 in0.0 mm
12:42 AM 21.9°F-5.6°C 18.3°F-7.6°C 86% 2.9 mph SE4.7 kmh SE 0.9 mph1.4 kmh 29.90 in1012.5 mb 0.00 in0.0 mm 0.00 in/hr0.0 mm/hr 0.00 in0.0 mm
12:37 AM 21.9°F-5.6°C 18.3°F-7.6°C 86% 4.0 mph SE6.4 kmh SE 4.9 mph7.9 kmh 29.90 in1012.5 mb 0.00 in0.0 mm 0.00 in/hr0.0 mm/hr 0.00 in0.0 mm
12:32 AM 21.7°F-5.7°C 18.0°F-7.8°C 85% 4.0 mph ESE6.4 kmh ESE 6.0 mph9.7 kmh 29.90 in1012.5 mb 0.00 in0.0 mm 0.00 in/hr0.0 mm/hr 0.00 in0.0 mm
12:27 AM 21.7°F-5.7°C 17.6°F-8.0°C 84% 4.0 mph E6.4 kmh E 6.9 mph11.1 kmh 29.91 in1012.9 mb 0.00 in0.0 mm 0.00 in/hr0.0 mm/hr 0.00 in0.0 mm
12:22 AM 21.7°F-5.7°C 17.1°F-8.3°C 82% 2.9 mph E4.7 kmh E 2.9 mph4.7 kmh 29.91 in1012.9 mb 0.00 in0.0 mm 0.00 in/hr0.0 mm/hr 0.00 in0.0 mm
12:17 AM 21.7°F-5.7°C 16.9°F-8.4°C 81% 2.0 mph ESE3.2 kmh ESE 6.0 mph9.7 kmh 29.91 in1012.9 mb 0.00 in0.0 mm 0.00 in/hr0.0 mm/hr 0.00 in0.0 mm
12:12 AM 21.9°F-5.6°C 16.3°F-8.7°C 79% 2.9 mph E4.7 kmh E 2.9 mph4.7 kmh 29.92 in1013.2 mb 0.00 in0.0 mm 0.00 in/hr0.0 mm/hr 0.00 in0.0 mm
12:07 AM 21.9°F-5.6°C 16.2°F-8.8°C 78% 2.9 mph ESE4.7 kmh ESE 2.0 mph3.2 kmh 29.92 in1013.2 mb 0.00 in0.0 mm 0.00 in/hr0.0 mm/hr 0.00 in0.0 mm
12:02 AM 21.9°F-5.6°C 15.8°F-9.0°C 77% 2.9 mph ESE4.7 kmh ESE 2.9 mph4.7 kmh 29.93 in1013.5 mb 0.00 in0.0 mm 0.00 in/hr0.0 mm/hr 0.00 in0.0 mm